createdAt,value
2023-03-11T00:00:33.203Z,0.57
2023-03-11T00:03:02.702Z,0.44
2023-03-11T00:05:36.221Z,0.30
2023-03-11T00:08:05.204Z,0.24
2023-03-11T00:10:35.581Z,0.17
2023-03-11T00:13:04.182Z,0.12
2023-03-11T00:15:32.438Z,0.00
2023-03-11T00:18:00.819Z,-0.07
2023-03-11T00:20:30.072Z,-0.19
2023-03-11T00:22:58.104Z,-0.22
2023-03-11T00:25:27.990Z,-0.29
2023-03-11T00:27:55.879Z,-0.34
2023-03-11T00:30:24.447Z,-0.40
2023-03-11T00:32:55.535Z,-0.48
2023-03-11T00:35:28.948Z,-0.58
2023-03-11T00:37:59.070Z,-0.63
2023-03-11T00:40:30.103Z,-0.67
2023-03-11T00:42:58.336Z,-0.67
2023-03-11T00:45:26.681Z,-0.70
2023-03-11T00:47:55.381Z,-0.73
2023-03-11T00:50:29.328Z,-0.73
2023-03-11T00:52:57.153Z,-0.76
2023-03-11T00:55:28.573Z,-0.78
2023-03-11T00:58:00.075Z,-0.82
2023-03-11T01:00:32.277Z,-0.84
2023-03-11T01:03:00.883Z,-0.85
2023-03-11T01:05:31.312Z,-0.86
2023-03-11T01:07:59.518Z,-0.83
2023-03-11T01:10:29.228Z,-0.85
2023-03-11T01:12:56.725Z,-0.82
2023-03-11T01:15:33.418Z,-0.83
2023-03-11T01:18:01.561Z,-0.82
2023-03-11T01:20:29.531Z,-0.83
2023-03-11T01:22:57.279Z,-0.84
2023-03-11T01:25:25.397Z,-0.82
2023-03-11T01:27:52.821Z,-0.86
2023-03-11T01:30:24.851Z,-0.87
2023-03-11T01:32:53.952Z,-0.89
2023-03-11T01:35:24.003Z,-0.90
2023-03-11T01:37:52.985Z,-0.90
2023-03-11T01:40:27.173Z,-0.93
2023-03-11T01:42:54.689Z,-0.89
2023-03-11T01:45:43.234Z,-0.90
2023-03-11T01:48:12.961Z,-0.93
2023-03-11T01:50:46.411Z,-0.92
2023-03-11T01:53:16.896Z,-0.96
2023-03-11T01:55:46.230Z,-0.98
2023-03-11T01:58:18.438Z,-0.98
2023-03-11T02:00:47.357Z,-0.98
2023-03-11T02:03:24.362Z,-0.96
2023-03-11T02:05:54.178Z,-1.01
2023-03-11T02:08:22.048Z,-1.03
2023-03-11T02:10:52.342Z,-1.04
2023-03-11T02:13:20.530Z,-1.06
2023-03-11T02:15:48.241Z,-1.06
2023-03-11T02:18:18.682Z,-1.07
2023-03-11T02:21:10.449Z,-1.09
2023-03-11T02:23:57.908Z,-1.12
2023-03-11T02:26:41.229Z,-1.12
2023-03-11T02:29:11.402Z,-1.10
2023-03-11T02:31:42.928Z,-1.12
2023-03-11T02:34:21.419Z,-1.10
2023-03-11T02:36:49.701Z,-1.11
2023-03-11T02:39:28.989Z,-1.11
2023-03-11T02:41:57.361Z,-1.09
2023-03-11T02:44:25.417Z,-1.09
2023-03-11T02:46:53.661Z,-1.12
2023-03-11T02:49:23.165Z,-1.13
2023-03-11T02:51:50.647Z,-1.16
2023-03-11T02:54:18.334Z,-1.20
2023-03-11T02:56:46.415Z,-1.22
2023-03-11T02:59:13.832Z,-1.25
2023-03-11T03:01:41.626Z,-1.25
2023-03-11T03:04:11.496Z,-1.26
2023-03-11T03:06:39.021Z,-1.28
2023-03-11T03:09:06.558Z,-1.30
2023-03-11T03:11:33.968Z,-1.31
2023-03-11T03:14:01.498Z,-1.34
2023-03-11T03:16:29.039Z,-1.39
2023-03-11T03:18:56.543Z,-1.39
2023-03-11T03:21:24.009Z,-1.42
2023-03-11T03:23:51.827Z,-1.43
2023-03-11T03:26:19.902Z,-1.49
2023-03-11T03:28:49.636Z,-1.50
2023-03-11T03:31:17.276Z,-1.53
2023-03-11T03:33:45.542Z,-1.52
2023-03-11T03:36:15.047Z,-1.56
2023-03-11T03:38:46.367Z,-1.60
2023-03-11T03:41:15.843Z,-1.59
2023-03-11T03:43:43.630Z,-1.62
2023-03-11T03:46:11.424Z,-1.61
2023-03-11T03:48:43.081Z,-1.64
2023-03-11T03:51:13.777Z,-1.66
2023-03-11T03:53:47.069Z,-1.64
2023-03-11T03:56:17.713Z,-1.66
2023-03-11T03:58:45.556Z,-1.67
2023-03-11T04:01:13.188Z,-1.68
2023-03-11T04:03:41.954Z,-1.68
2023-03-11T04:06:19.351Z,-1.68
2023-03-11T04:08:52.209Z,-1.71
2023-03-11T04:11:22.453Z,-1.69
2023-03-11T04:13:50.388Z,-1.70
2023-03-11T04:16:21.575Z,-1.71
2023-03-11T04:18:49.743Z,-1.72
2023-03-11T04:21:18.226Z,-1.68
2023-03-11T04:23:46.917Z,-1.70
2023-03-11T04:26:16.834Z,-1.68
2023-03-11T04:28:44.352Z,-1.68
2023-03-11T04:31:12.782Z,-1.69
2023-03-11T04:33:40.422Z,-1.71
2023-03-11T04:36:10.395Z,-1.69
2023-03-11T04:38:39.455Z,-1.69
2023-03-11T04:41:13.264Z,-1.72
2023-03-11T04:43:44.386Z,-1.72
2023-03-11T04:46:12.044Z,-1.73
2023-03-11T04:48:41.665Z,-1.73
2023-03-11T04:51:09.744Z,-1.74
2023-03-11T04:53:37.101Z,-1.76
2023-03-11T04:56:05.464Z,-1.74
2023-03-11T04:58:34.264Z,-1.74
2023-03-11T05:01:01.975Z,-1.73
2023-03-11T05:03:29.904Z,-1.72
2023-03-11T05:05:57.510Z,-1.72
2023-03-11T05:08:25.613Z,-1.73
2023-03-11T05:10:53.889Z,-1.70
2023-03-11T05:13:22.745Z,-1.72
2023-03-11T05:15:52.471Z,-1.73
2023-03-11T05:18:21.063Z,-1.73
2023-03-11T05:20:49.611Z,-1.73
2023-03-11T05:23:20.002Z,-1.76
2023-03-11T05:25:47.542Z,-1.74
2023-03-11T05:28:15.168Z,-1.76
2023-03-11T05:30:50.289Z,-1.72
2023-03-11T05:33:21.395Z,-1.71
2023-03-11T05:35:52.089Z,-1.69
2023-03-11T05:38:20.923Z,-1.67
2023-03-11T05:40:48.483Z,-1.63
2023-03-11T05:43:16.168Z,-1.64
2023-03-11T05:45:47.893Z,-1.63
2023-03-11T05:48:15.430Z,-1.62
2023-03-11T05:50:43.443Z,-1.64
2023-03-11T05:53:11.314Z,-1.61
2023-03-11T05:55:38.698Z,-1.62
2023-03-11T05:58:06.811Z,-1.63
2023-03-11T06:00:34.901Z,-1.62
2023-03-11T06:03:04.244Z,-1.62
2023-03-11T06:05:31.661Z,-1.64
2023-03-11T06:07:59.363Z,-1.63
2023-03-11T06:10:26.816Z,-1.65
2023-03-11T06:12:54.692Z,-1.65
2023-03-11T06:15:36.428Z,-1.66
2023-03-11T06:18:05.182Z,-1.65
2023-03-11T06:20:33.590Z,-1.64
2023-03-11T06:23:01.273Z,-1.63
2023-03-11T06:25:28.761Z,-1.62
2023-03-11T06:27:56.828Z,-1.61
2023-03-11T06:30:25.735Z,-1.60
2023-03-11T06:33:00.551Z,-1.59
2023-03-11T06:35:28.511Z,-1.59
2023-03-11T06:37:56.332Z,-1.56
2023-03-11T06:40:24.373Z,-1.57
2023-03-11T06:42:52.540Z,-1.59
2023-03-11T06:45:22.773Z,-1.59
2023-03-11T06:47:50.973Z,-1.60
2023-03-11T06:50:18.636Z,-1.59
2023-03-11T06:52:46.047Z,-1.58
2023-03-11T06:55:13.398Z,-1.59
2023-03-11T06:57:41.577Z,-1.58
2023-03-11T07:00:14.617Z,-1.55
2023-03-11T07:02:47.175Z,-1.57
2023-03-11T07:05:18.040Z,-1.59
2023-03-11T07:07:46.344Z,-1.62
2023-03-11T07:10:14.478Z,-1.65
2023-03-11T07:12:42.524Z,-1.64
2023-03-11T07:15:10.762Z,-1.62
2023-03-11T07:17:38.448Z,-1.66
2023-03-11T07:20:07.052Z,-1.65
2023-03-11T07:22:35.300Z,-1.66
2023-03-11T07:25:02.904Z,-1.66
2023-03-11T07:27:30.494Z,-1.66
2023-03-11T07:29:58.190Z,-1.68
2023-03-11T07:32:25.716Z,-1.69
2023-03-11T07:34:53.340Z,-1.67
2023-03-11T07:37:20.906Z,-1.67
2023-03-11T07:39:48.516Z,-1.66
2023-03-11T07:42:15.714Z,-1.65
2023-03-11T07:44:43.377Z,-1.68
2023-03-11T07:47:10.746Z,-1.66
2023-03-11T07:49:39.607Z,-1.66
2023-03-11T07:52:07.341Z,-1.66
2023-03-11T07:54:38.232Z,-1.67
2023-03-11T07:57:06.137Z,-1.65
2023-03-11T07:59:33.940Z,-1.64
2023-03-11T08:02:03.566Z,-1.64
2023-03-11T08:04:30.964Z,-1.61
2023-03-11T08:06:58.631Z,-1.61
2023-03-11T08:09:26.563Z,-1.58
2023-03-11T08:11:54.418Z,-1.58
2023-03-11T08:14:22.175Z,-1.55
2023-03-11T08:16:49.746Z,-1.55
2023-03-11T08:19:17.467Z,-1.53
2023-03-11T08:21:45.169Z,-1.53
2023-03-11T08:24:13.984Z,-1.50
2023-03-11T08:26:42.029Z,-1.47
2023-03-11T08:29:09.427Z,-1.47
2023-03-11T08:31:37.000Z,-1.41
2023-03-11T08:34:07.696Z,-1.45
2023-03-11T08:36:35.838Z,-1.46
2023-03-11T08:39:03.701Z,-1.44
2023-03-11T08:41:31.326Z,-1.47
2023-03-11T08:43:58.843Z,-1.41
2023-03-11T08:46:32.168Z,-1.40
2023-03-11T08:49:01.349Z,-1.38
2023-03-11T08:51:31.305Z,-1.35
2023-03-11T08:53:59.550Z,-1.34
2023-03-11T08:56:27.199Z,-1.31
2023-03-11T08:58:54.669Z,-1.31
2023-03-11T09:01:23.152Z,-1.36
2023-03-11T09:03:56.310Z,-1.35
2023-03-11T09:06:24.612Z,-1.40
2023-03-11T09:08:56.149Z,-1.48
2023-03-11T09:11:24.023Z,-1.54
2023-03-11T09:13:51.392Z,-1.55
2023-03-11T09:16:23.670Z,-1.60
2023-03-11T09:18:51.105Z,-1.66
2023-03-11T09:21:19.046Z,-1.67
2023-03-11T09:23:47.176Z,-1.68
2023-03-11T09:26:15.339Z,-1.70
2023-03-11T09:28:43.265Z,-1.69
2023-03-11T09:31:11.047Z,-1.69
2023-03-11T09:33:39.629Z,-1.65
2023-03-11T09:36:08.759Z,-1.65
2023-03-11T09:38:36.320Z,-1.67
2023-03-11T09:41:26.385Z,-1.62
2023-03-11T09:44:09.213Z,-1.59
2023-03-11T09:47:14.457Z,-1.57
2023-03-11T09:50:06.001Z,-1.55
2023-03-11T09:53:21.643Z,-1.47
2023-03-11T09:55:57.915Z,-1.44
2023-03-11T09:58:43.216Z,-1.44
2023-03-11T10:01:34.955Z,-1.40
2023-03-11T10:04:28.939Z,-1.36
2023-03-11T10:06:57.321Z,-1.33
2023-03-11T10:09:39.403Z,-1.26
2023-03-11T10:12:18.728Z,-1.25
2023-03-11T10:15:25.015Z,-1.15
2023-03-11T10:18:07.438Z,-1.06
2023-03-11T10:21:16.264Z,-0.94
2023-03-11T10:24:02.227Z,-0.88
2023-03-11T10:26:37.790Z,-0.78
2023-03-11T10:29:31.218Z,-0.73
2023-03-11T10:32:24.516Z,-0.79
2023-03-11T10:34:58.439Z,-0.76
2023-03-11T10:37:49.860Z,-0.77
2023-03-11T10:40:33.213Z,-0.77
2023-03-11T10:43:05.496Z,-0.68
2023-03-11T10:45:44.810Z,-0.72
2023-03-11T10:48:17.009Z,-0.80
2023-03-11T10:51:26.955Z,-0.86
2023-03-11T10:54:00.623Z,-0.78
2023-03-11T10:56:30.217Z,-0.83
2023-03-11T10:58:58.555Z,-0.92
2023-03-11T11:01:27.164Z,-0.92
2023-03-11T11:03:57.313Z,-0.88
2023-03-11T11:06:30.795Z,-0.93
2023-03-11T11:09:22.115Z,-0.99
2023-03-11T11:12:16.059Z,-1.06
2023-03-11T11:14:51.306Z,-1.03
2023-03-11T11:17:24.675Z,-0.98
2023-03-11T11:19:53.416Z,-0.87
2023-03-11T11:22:23.641Z,-0.83
2023-03-11T11:24:54.422Z,-0.81
2023-03-11T11:27:24.875Z,-0.90
2023-03-11T11:30:08.964Z,-0.93
2023-03-11T11:32:37.970Z,-0.93
2023-03-11T11:35:15.615Z,-0.94
2023-03-11T11:37:58.040Z,-0.59
2023-03-11T11:40:31.149Z,-0.25
2023-03-11T11:43:04.939Z,-0.01
2023-03-11T11:45:45.587Z,-0.23
2023-03-11T11:48:47.663Z,-0.23
2023-03-11T11:51:27.679Z,-0.47
2023-03-11T11:54:18.487Z,-0.52
2023-03-11T11:56:46.842Z,-0.55
2023-03-11T11:59:19.374Z,-0.66
2023-03-11T12:01:57.334Z,-0.65
2023-03-11T12:04:40.809Z,-0.58
2023-03-11T12:07:23.485Z,-0.57
2023-03-11T12:09:55.571Z,-0.66
2023-03-11T12:12:44.543Z,-0.72
2023-03-11T12:15:33.967Z,-0.71
2023-03-11T12:18:12.148Z,-0.67
2023-03-11T12:20:54.982Z,-0.74
2023-03-11T12:23:33.793Z,-0.70
2023-03-11T12:26:07.830Z,-0.71
2023-03-11T12:28:46.020Z,-0.72
2023-03-11T12:31:14.507Z,-0.79
2023-03-11T12:34:13.241Z,-0.80
2023-03-11T12:36:47.055Z,-0.97
2023-03-11T12:39:25.227Z,-1.09
2023-03-11T12:42:11.085Z,-1.13
2023-03-11T12:44:39.859Z,-1.08
2023-03-11T12:47:13.275Z,-1.08
2023-03-11T12:49:46.807Z,-1.06
2023-03-11T12:52:14.141Z,-1.05
2023-03-11T12:55:01.401Z,-1.10
2023-03-11T12:57:32.976Z,-1.13
2023-03-11T13:00:38.270Z,-1.08
2023-03-11T13:03:09.680Z,-0.94
2023-03-11T13:06:04.651Z,-0.84
2023-03-11T13:08:45.853Z,-0.80
2023-03-11T13:11:33.650Z,-0.65
2023-03-11T13:14:35.557Z,-0.49
2023-03-11T13:17:25.841Z,-0.04
2023-03-11T13:19:57.771Z,0.07
2023-03-11T13:23:06.340Z,0.07
2023-03-11T13:25:39.442Z,-0.05
2023-03-11T13:28:53.076Z,-0.18
2023-03-11T13:31:39.542Z,-0.18
2023-03-11T13:34:18.016Z,-0.34
2023-03-11T13:37:09.715Z,-0.47
2023-03-11T13:39:40.860Z,-0.49
2023-03-11T13:42:27.074Z,-0.46
2023-03-11T13:44:54.892Z,-0.51
2023-03-11T13:47:23.636Z,-0.49
2023-03-11T13:49:59.778Z,-0.44
2023-03-11T13:52:45.725Z,-0.43
2023-03-11T13:55:23.410Z,-0.42
2023-03-11T13:57:58.093Z,-0.41
2023-03-11T14:00:29.823Z,-0.41
2023-03-11T14:03:12.937Z,-0.45
2023-03-11T14:05:46.439Z,-0.42
2023-03-11T14:08:21.189Z,-0.29
2023-03-11T14:10:57.323Z,-0.20
2023-03-11T14:13:27.416Z,-0.05
2023-03-11T14:16:24.944Z,-0.15
2023-03-11T14:19:08.957Z,-0.18
2023-03-11T14:21:36.647Z,0.01
2023-03-11T14:24:04.350Z,0.43
2023-03-11T14:26:35.338Z,0.25
2023-03-11T14:29:10.779Z,0.27
2023-03-11T14:31:40.646Z,0.17
2023-03-11T14:34:11.076Z,0.12
2023-03-11T14:36:45.857Z,0.08
2023-03-11T14:39:38.791Z,0.04
2023-03-11T14:42:45.087Z,0.07
2023-03-11T14:45:18.166Z,0.18
2023-03-11T14:48:02.437Z,0.09
2023-03-11T14:50:33.801Z,0.06
2023-03-11T14:53:14.093Z,-0.09
2023-03-11T14:55:51.271Z,-0.05
2023-03-11T14:58:37.288Z,-0.18
2023-03-11T15:01:19.413Z,-0.25
2023-03-11T15:03:59.190Z,-0.28
2023-03-11T15:06:30.102Z,-0.26
2023-03-11T15:09:00.102Z,-0.20
2023-03-11T15:11:28.591Z,-0.18
2023-03-11T15:14:28.364Z,-0.18
2023-03-11T15:17:08.421Z,-0.22
2023-03-11T15:19:36.057Z,-0.23
2023-03-11T15:22:26.164Z,-0.24
2023-03-11T15:24:59.535Z,-0.21
2023-03-11T15:27:33.631Z,-0.15
2023-03-11T15:30:04.959Z,-0.15
2023-03-11T15:32:32.537Z,-0.14
2023-03-11T15:35:08.188Z,-0.13
2023-03-11T15:37:35.921Z,-0.13
2023-03-11T15:40:35.275Z,-0.13
2023-03-11T15:43:15.560Z,-0.21
2023-03-11T15:45:44.227Z,-0.21
2023-03-11T15:48:13.425Z,-0.26
2023-03-11T15:50:53.897Z,-0.22
2023-03-11T15:53:23.928Z,-0.21
2023-03-11T15:55:53.735Z,-0.23
2023-03-11T15:58:21.591Z,-0.25
2023-03-11T16:00:50.503Z,-0.27
2023-03-11T16:03:21.104Z,-0.29
2023-03-11T16:05:49.568Z,-0.28
2023-03-11T16:08:17.098Z,-0.32
2023-03-11T16:10:45.222Z,-0.33
2023-03-11T16:13:14.209Z,-0.38
2023-03-11T16:15:43.215Z,-0.40
2023-03-11T16:18:11.123Z,-0.41
2023-03-11T16:20:41.822Z,-0.45
2023-03-11T16:23:18.125Z,-0.44
2023-03-11T16:25:46.712Z,-0.44
2023-03-11T16:28:16.670Z,-0.41
2023-03-11T16:30:44.122Z,-0.42
2023-03-11T16:33:11.687Z,-0.39
2023-03-11T16:35:39.761Z,-0.40
2023-03-11T16:38:08.759Z,-0.45
2023-03-11T16:40:37.581Z,-0.46
2023-03-11T16:43:11.292Z,-0.47
2023-03-11T16:45:38.724Z,-0.49
2023-03-11T16:48:08.615Z,-0.52
2023-03-11T16:50:37.684Z,-0.53
2023-03-11T16:53:05.181Z,-0.56
2023-03-11T16:55:32.739Z,-0.60
2023-03-11T16:58:00.207Z,-0.65
2023-03-11T17:00:27.801Z,-0.72
2023-03-11T17:02:55.280Z,-0.78
2023-03-11T17:05:23.061Z,-0.85
2023-03-11T17:07:54.523Z,-1.01
2023-03-11T17:10:24.596Z,-0.98
2023-03-11T17:12:52.501Z,-1.05
2023-03-11T17:15:20.221Z,-1.05
2023-03-11T17:17:49.981Z,-1.09
2023-03-11T17:20:19.322Z,-1.12
2023-03-11T17:22:47.928Z,-1.18
2023-03-11T17:25:15.271Z,-1.17
2023-03-11T17:27:42.760Z,-1.23
2023-03-11T17:30:11.899Z,-1.27
2023-03-11T17:32:39.418Z,-1.35
2023-03-11T17:35:07.868Z,-1.35
2023-03-11T17:37:35.477Z,-1.31
2023-03-11T17:40:02.963Z,-1.33
2023-03-11T17:42:30.460Z,-1.41
2023-03-11T17:44:58.096Z,-1.50
2023-03-11T17:47:28.842Z,-1.54
2023-03-11T17:49:57.370Z,-1.52
2023-03-11T17:52:25.186Z,-1.52
2023-03-11T17:54:53.580Z,-1.57
2023-03-11T17:57:28.762Z,-1.51
2023-03-11T18:00:06.038Z,-1.52
2023-03-11T18:02:36.768Z,-1.52
2023-03-11T18:05:04.472Z,-1.53
2023-03-11T18:07:32.521Z,-1.53
2023-03-11T18:10:00.229Z,-1.62
2023-03-11T18:12:27.759Z,-1.75
2023-03-11T18:14:55.682Z,-1.70
2023-03-11T18:17:25.695Z,-1.69
2023-03-11T18:19:53.838Z,-1.80
2023-03-11T18:22:22.561Z,-1.92
2023-03-11T18:24:50.011Z,-1.94
2023-03-11T18:27:17.503Z,-1.96
2023-03-11T18:29:44.867Z,-1.99
2023-03-11T18:32:15.281Z,-2.08
2023-03-11T18:34:42.846Z,-2.06
2023-03-11T18:37:10.477Z,-2.06
2023-03-11T18:39:37.900Z,-2.07
2023-03-11T18:42:05.982Z,-2.04
2023-03-11T18:44:36.921Z,-2.10
2023-03-11T18:47:04.915Z,-2.11
2023-03-11T18:49:32.729Z,-2.13
2023-03-11T18:52:00.175Z,-2.13
2023-03-11T18:54:27.974Z,-2.16
2023-03-11T18:56:55.228Z,-2.13
2023-03-11T18:59:22.421Z,-2.20
2023-03-11T19:01:51.156Z,-2.24
2023-03-11T19:04:18.893Z,-2.18
2023-03-11T19:06:46.934Z,-2.18
2023-03-11T19:09:14.716Z,-2.14
2023-03-11T19:11:42.163Z,-2.17
2023-03-11T19:14:09.468Z,-2.22
2023-03-11T19:16:37.362Z,-2.28
2023-03-11T19:19:04.730Z,-2.31
2023-03-11T19:21:32.123Z,-2.33
2023-03-11T19:24:00.456Z,-2.35
2023-03-11T19:26:43.795Z,-2.40
2023-03-11T19:29:12.724Z,-2.37
2023-03-11T19:31:40.113Z,-2.34
2023-03-11T19:34:07.530Z,-2.34
2023-03-11T19:36:35.253Z,-2.37
2023-03-11T19:39:03.346Z,-2.40
2023-03-11T19:41:30.777Z,-2.42
2023-03-11T19:43:58.490Z,-2.34
2023-03-11T19:46:25.850Z,-2.35
2023-03-11T19:48:56.785Z,-2.35
2023-03-11T19:51:26.650Z,-2.39
2023-03-11T19:53:55.933Z,-2.37
2023-03-11T19:56:23.332Z,-2.35
2023-03-11T19:58:50.683Z,-2.30
2023-03-11T20:01:20.124Z,-2.30
2023-03-11T20:03:48.020Z,-2.31
2023-03-11T20:06:18.766Z,-2.33
2023-03-11T20:08:46.652Z,-2.35
2023-03-11T20:11:14.071Z,-2.34
2023-03-11T20:13:44.123Z,-2.34
2023-03-11T20:16:16.598Z,-2.32
2023-03-11T20:18:48.130Z,-2.36
2023-03-11T20:21:15.408Z,-2.43
2023-03-11T20:23:42.762Z,-2.49
2023-03-11T20:26:13.574Z,-2.53
2023-03-11T20:28:41.275Z,-2.54
2023-03-11T20:31:15.150Z,-2.60
2023-03-11T20:33:43.132Z,-2.69
2023-03-11T20:36:16.790Z,-2.69
2023-03-11T20:38:44.363Z,-2.75
2023-03-11T20:41:11.772Z,-2.82
2023-03-11T20:43:40.195Z,-2.75
2023-03-11T20:46:09.643Z,-2.83
2023-03-11T20:48:38.526Z,-2.86
2023-03-11T20:51:20.394Z,-2.89
2023-03-11T20:53:49.034Z,-2.81
2023-03-11T20:56:19.781Z,-2.82
2023-03-11T20:58:51.041Z,-2.83
2023-03-11T21:01:39.097Z,-2.90
2023-03-11T21:04:06.725Z,-2.87
2023-03-11T21:06:39.542Z,-2.92
2023-03-11T21:09:11.916Z,-2.78
2023-03-11T21:11:39.433Z,-2.74
2023-03-11T21:14:07.382Z,-2.74
2023-03-11T21:16:35.403Z,-2.79
2023-03-11T21:19:05.670Z,-2.87
2023-03-11T21:21:33.222Z,-2.92
2023-03-11T21:24:03.626Z,-2.97
2023-03-11T21:26:31.700Z,-3.02
2023-03-11T21:29:00.022Z,-2.92
2023-03-11T21:31:29.497Z,-2.81
2023-03-11T21:33:59.515Z,-2.71
2023-03-11T21:36:29.436Z,-2.57
2023-03-11T21:38:56.999Z,-2.54
2023-03-11T21:41:26.737Z,-2.59
2023-03-11T21:43:55.829Z,-2.69
2023-03-11T21:46:27.079Z,-2.63
2023-03-11T21:48:54.514Z,-2.70
2023-03-11T21:51:25.747Z,-2.72
2023-03-11T21:53:53.399Z,-2.80
2023-03-11T21:56:20.769Z,-2.87
2023-03-11T21:58:50.007Z,-2.87
2023-03-11T22:01:17.392Z,-2.86
2023-03-11T22:03:45.260Z,-2.78
2023-03-11T22:06:13.099Z,-2.89
2023-03-11T22:08:40.561Z,-2.78
2023-03-11T22:11:09.722Z,-2.87
2023-03-11T22:13:37.214Z,-2.71
2023-03-11T22:16:06.423Z,-2.73
2023-03-11T22:18:34.090Z,-2.85
2023-03-11T22:21:02.010Z,-2.90
2023-03-11T22:23:29.594Z,-2.88
2023-03-11T22:25:56.988Z,-2.96
2023-03-11T22:28:25.007Z,-2.91
2023-03-11T22:30:52.370Z,-2.88
2023-03-11T22:33:19.763Z,-2.87
2023-03-11T22:35:55.367Z,-2.88
2023-03-11T22:38:23.384Z,-2.86
2023-03-11T22:40:51.036Z,-2.79
2023-03-11T22:43:18.395Z,-2.70
2023-03-11T22:45:46.332Z,-2.64
2023-03-11T22:48:13.886Z,-2.55
2023-03-11T22:50:44.486Z,-2.44
2023-03-11T22:53:13.580Z,-2.50
2023-03-11T22:55:43.083Z,-2.54
2023-03-11T22:58:11.154Z,-2.56
2023-03-11T23:00:39.513Z,-2.58
2023-03-11T23:03:06.932Z,-2.64
2023-03-11T23:05:40.845Z,-2.59
2023-03-11T23:08:14.406Z,-2.62
2023-03-11T23:10:45.897Z,-2.71
2023-03-11T23:13:13.702Z,-2.71
2023-03-11T23:15:42.522Z,-2.67
2023-03-11T23:18:10.998Z,-2.63
2023-03-11T23:20:40.070Z,-2.60
2023-03-11T23:23:08.459Z,-2.63
2023-03-11T23:25:36.172Z,-2.68
2023-03-11T23:28:04.141Z,-2.68
2023-03-11T23:30:31.866Z,-2.69
2023-03-11T23:33:00.166Z,-2.66
2023-03-11T23:35:27.641Z,-2.63
2023-03-11T23:37:54.983Z,-2.57
2023-03-11T23:40:22.239Z,-2.64
2023-03-11T23:42:50.786Z,-2.63
2023-03-11T23:45:19.164Z,-2.62
2023-03-11T23:47:46.610Z,-2.54
2023-03-11T23:50:13.959Z,-2.57
2023-03-11T23:52:41.749Z,-2.55
2023-03-11T23:55:09.559Z,-2.59
2023-03-11T23:57:38.015Z,-2.58
